Time;durP1;ratioP1;P1;durP2;ratioP2;P2;SDS_P1;SDS_P2;PMS_P1;PMS_P2;Temp;Humidity;BMP_temperature;BMP_pressure;BME280_temperature;BME280_humidity;BME280_pressure;Samples;Min_cycle;Max_cycle;Signal;HPM_P1;HPM_P2
2021/06/21 00:01:42;;;;;;;;;;;17.20;79.80;;;;;;5012375;28;20004;-65
2021/06/21 00:04:08;;;;;;;;;;;17.20;79.90;;;;;;5012834;28;19981;-65
2021/06/21 00:06:33;;;;;;;;;;;17.20;79.80;;;;;;5013269;28;19917;-65
2021/06/21 00:08:59;;;;;;;;;;;17.10;79.90;;;;;;5011840;28;19921;-65
2021/06/21 00:11:24;;;;;;;;;;;17.10;79.90;;;;;;5012723;28;19924;-66
2021/06/21 00:13:50;;;;;;;;;;;17.10;79.90;;;;;;5013148;28;20057;-66
2021/06/21 00:16:15;;;;;;;;;;;17.00;80.00;;;;;;4995852;28;19917;-65
2021/06/21 00:18:41;;;;;;;;;;;17.00;80.10;;;;;;4995095;28;19952;-65
2021/06/21 00:21:07;;;;;;;;;;;16.90;80.20;;;;;;5013156;28;20267;-65
2021/06/21 00:23:32;;;;;;;;;;;16.90;80.40;;;;;;5013200;28;19918;-65
2021/06/21 00:25:58;;;;;;;;;;;16.90;80.50;;;;;;5012619;28;20397;-65
2021/06/21 00:28:23;;;;;;;;;;;16.80;80.40;;;;;;5012690;28;20056;-65
2021/06/21 00:30:49;;;;;;;;;;;16.80;80.50;;;;;;5012173;28;19917;-65
2021/06/21 00:33:15;;;;;;;;;;;16.80;80.70;;;;;;4994919;28;19921;-64
2021/06/21 00:35:40;;;;;;;;;;;16.70;80.60;;;;;;4995915;28;20007;-65
2021/06/21 00:38:07;;;;;;;;;;;16.70;80.90;;;;;;5012012;28;19918;-65
2021/06/21 00:40:33;;;;;;;;;;;16.70;81.00;;;;;;5012685;28;20008;-65
2021/06/21 00:42:59;;;;;;;;;;;16.70;81.10;;;;;;5012767;28;19924;-65
2021/06/21 00:45:25;;;;;;;;;;;16.60;81.30;;;;;;5012244;28;19917;-65
2021/06/21 00:47:54;;;;;;;;;;;16.60;81.30;;;;;;4994788;28;20008;-66
2021/06/21 00:50:23;;;;;;;;;;;16.60;81.40;;;;;;5012109;28;19925;-65
2021/06/21 00:52:51;;;;;;;;;;;16.60;81.30;;;;;;5011590;28;19917;-65
2021/06/21 00:55:16;;;;;;;;;;;16.50;81.50;;;;;;4994483;28;20290;-65
2021/06/21 00:57:42;;;;;;;;;;;16.50;81.70;;;;;;5011512;28;19917;-65
2021/06/21 01:00:08;;;;;;;;;;;16.50;81.70;;;;;;5011289;28;19944;-65
2021/06/21 01:02:34;;;;;;;;;;;16.50;81.90;;;;;;4994314;28;19917;-65
2021/06/21 01:05:00;;;;;;;;;;;16.50;81.70;;;;;;5012462;28;19978;-65
2021/06/21 01:07:26;;;;;;;;;;;16.50;82.00;;;;;;5010876;28;19917;-65
2021/06/21 01:09:53;;;;;;;;;;;16.50;82.00;;;;;;5011954;28;19928;-65
2021/06/21 01:12:37;;;;;;;;;;;16.50;82.10;;;;;;5010995;28;19941;-65
2021/06/21 01:15:05;;;;;;;;;;;16.50;82.30;;;;;;4994183;28;19925;-65
2021/06/21 01:17:49;;;;;;;;;;;16.50;82.30;;;;;;5011897;28;19968;-65
2021/06/21 01:20:33;;;;;;;;;;;16.50;82.30;;;;;;4994122;28;19918;-67
2021/06/21 01:23:17;;;;;;;;;;;16.50;82.10;;;;;;4994082;28;19984;-64
2021/06/21 01:25:48;;;;;;;;;;;16.40;82.10;;;;;;5012134;28;19945;-65
2021/06/21 01:28:33;;;;;;;;;;;16.40;82.40;;;;;;5011381;28;20366;-65
2021/06/21 01:31:06;;;;;;;;;;;16.40;82.50;;;;;;5012157;28;19922;-65
2021/06/21 01:33:32;;;;;;;;;;;16.40;82.40;;;;;;5010425;28;19953;-65
2021/06/21 01:35:59;;;;;;;;;;;16.40;82.30;;;;;;5011834;28;19984;-65
2021/06/21 01:38:27;;;;;;;;;;;16.40;82.40;;;;;;4993581;28;19921;-65
2021/06/21 01:40:53;;;;;;;;;;;16.40;82.50;;;;;;5011805;28;20400;-65
2021/06/21 01:43:20;;;;;;;;;;;16.40;82.50;;;;;;4994254;28;19917;-65
2021/06/21 01:45:47;;;;;;;;;;;16.40;82.40;;;;;;5011558;28;19924;-65
2021/06/21 01:48:13;;;;;;;;;;;16.40;82.40;;;;;;5011503;28;19917;-65
2021/06/21 01:50:39;;;;;;;;;;;16.40;82.70;;;;;;5010118;28;20262;-65
2021/06/21 01:53:04;;;;;;;;;;;16.40;82.70;;;;;;4994070;28;19924;-65
2021/06/21 01:55:31;;;;;;;;;;;16.40;82.70;;;;;;5011763;28;19917;-65
2021/06/21 01:57:57;;;;;;;;;;;16.40;82.70;;;;;;4993539;28;20288;-65
2021/06/21 02:00:23;;;;;;;;;;;16.40;82.70;;;;;;5010500;28;20008;-65
2021/06/21 02:02:50;;;;;;;;;;;16.40;82.70;;;;;;5011035;28;19945;-65
2021/06/21 02:05:17;;;;;;;;;;;16.40;82.70;;;;;;4994044;28;20293;-65
2021/06/21 02:07:47;;;;;;;;;;;16.40;82.50;;;;;;4994202;28;19913;-65
2021/06/21 02:10:13;;;;;;;;;;;16.40;82.30;;;;;;5015111;28;20425;-65
2021/06/21 02:12:39;;;;;;;;;;;16.40;82.50;;;;;;5015493;28;19993;-65
2021/06/21 02:15:06;;;;;;;;;;;16.40;82.60;;;;;;5015087;28;20044;-65
2021/06/21 02:17:32;;;;;;;;;;;16.40;82.70;;;;;;4997826;28;19925;-65
2021/06/21 02:19:58;;;;;;;;;;;16.40;83.20;;;;;;4998023;28;19918;-65
2021/06/21 02:22:25;;;;;;;;;;;16.40;82.50;;;;;;4997466;28;19917;-65
2021/06/21 02:24:51;;;;;;;;;;;16.40;82.70;;;;;;5015388;28;19964;-65
2021/06/21 02:27:18;;;;;;;;;;;16.40;82.70;;;;;;5014560;28;19924;-65
2021/06/21 02:29:43;;;;;;;;;;;16.40;82.80;;;;;;5015077;28;19971;-65
2021/06/21 02:32:09;;;;;;;;;;;16.40;82.90;;;;;;5015113;28;19918;-65
2021/06/21 02:34:35;;;;;;;;;;;16.40;82.60;;;;;;4997031;28;19932;-65
2021/06/21 02:37:00;;;;;;;;;;;16.40;82.50;;;;;;5014800;28;19983;-65
2021/06/21 02:39:26;;;;;;;;;;;16.40;82.70;;;;;;4997465;28;19918;-66
2021/06/21 02:41:51;;;;;;;;;;;16.40;82.90;;;;;;4997010;28;19918;-66
2021/06/21 02:44:17;;;;;;;;;;;16.40;83.00;;;;;;4997072;28;20429;-66
2021/06/21 02:46:42;;;;;;;;;;;16.40;83.10;;;;;;5013987;28;19964;-66
2021/06/21 02:49:08;;;;;;;;;;;16.40;82.70;;;;;;5014780;28;19922;-66
2021/06/21 02:51:52;;;;;;;;;;;16.40;82.90;;;;;;5013279;28;20333;-65
2021/06/21 02:54:37;;;;;;;;;;;16.30;82.80;;;;;;4996575;28;19956;-65
2021/06/21 02:57:08;;;;;;;;;;;16.30;82.80;;;;;;5014231;28;19941;-66
2021/06/21 02:59:36;;;;;;;;;;;16.30;83.00;;;;;;5016447;28;19968;-65
2021/06/21 03:02:02;;;;;;;;;;;16.20;83.00;;;;;;5001057;28;20374;-66
2021/06/21 03:04:28;;;;;;;;;;;16.20;83.20;;;;;;5014181;28;20485;-66
2021/06/21 03:06:55;;;;;;;;;;;16.20;83.30;;;;;;5013943;28;20004;-66
2021/06/21 03:09:21;;;;;;;;;;;16.20;83.40;;;;;;4996491;28;19921;-65
2021/06/21 03:11:51;;;;;;;;;;;16.10;83.50;;;;;;5014521;28;19925;-66
2021/06/21 03:14:20;;;;;;;;;;;16.10;84.00;;;;;;5014387;28;19918;-66
2021/06/21 03:16:46;;;;;;;;;;;16.20;83.90;;;;;;5013861;28;19921;-66
2021/06/21 03:19:13;;;;;;;;;;;16.20;84.30;;;;;;5014149;28;19917;-66
2021/06/21 03:21:42;;;;;;;;;;;16.20;84.30;;;;;;5013551;28;19968;-66
2021/06/21 03:24:07;;;;;;;;;;;16.20;84.30;;;;;;5014182;28;19972;-66
2021/06/21 03:26:33;;;;;;;;;;;16.30;84.40;;;;;;5014354;28;19925;-66
2021/06/21 03:28:58;;;;;;;;;;;16.30;84.30;;;;;;5013370;28;19953;-67
2021/06/21 03:31:24;;;;;;;;;;;16.20;84.30;;;;;;5013063;28;19951;-69
2021/06/21 03:33:50;;;;;;;;;;;16.20;85.10;;;;;;5013387;28;19921;-68
2021/06/21 03:36:16;;;;;;;;;;;16.20;84.90;;;;;;5012679;28;19917;-66
2021/06/21 03:38:42;;;;;;;;;;;16.30;85.00;;;;;;5013178;28;19917;-67
2021/06/21 03:41:08;;;;;;;;;;;16.30;84.90;;;;;;4995746;28;20605;-68
2021/06/21 03:43:35;;;;;;;;;;;16.20;85.00;;;;;;5014066;28;19917;-66
2021/06/21 03:46:02;;;;;;;;;;;16.20;84.80;;;;;;5012712;28;19925;-66
2021/06/21 03:48:28;;;;;;;;;;;16.20;84.70;;;;;;5012057;28;19918;-67
2021/06/21 03:50:54;;;;;;;;;;;16.10;85.00;;;;;;4996425;28;19940;-67
2021/06/21 03:53:21;;;;;;;;;;;16.10;85.50;;;;;;5013229;28;20382;-65
2021/06/21 03:55:47;;;;;;;;;;;16.10;85.90;;;;;;5013890;28;19921;-67
2021/06/21 03:58:12;;;;;;;;;;;16.10;85.50;;;;;;5013516;28;20366;-66
2021/06/21 04:00:38;;;;;;;;;;;16.10;85.70;;;;;;5011845;28;19917;-67
2021/06/21 04:03:04;;;;;;;;;;;16.10;86.20;;;;;;5013469;28;19924;-66
2021/06/21 04:05:30;;;;;;;;;;;16.10;86.30;;;;;;5013413;28;19913;-66
2021/06/21 04:07:55;;;;;;;;;;;16.10;86.30;;;;;;4995382;28;19968;-66
2021/06/21 04:10:23;;;;;;;;;;;16.10;86.30;;;;;;5013502;28;19928;-66
2021/06/21 04:12:50;;;;;;;;;;;16.10;86.30;;;;;;5013020;28;19972;-66
2021/06/21 04:15:16;;;;;;;;;;;16.10;86.40;;;;;;5013419;28;19922;-66
2021/06/21 04:17:42;;;;;;;;;;;16.20;86.60;;;;;;5012502;28;20333;-66
2021/06/21 04:20:09;;;;;;;;;;;16.20;86.80;;;;;;4995431;28;20004;-66
2021/06/21 04:22:35;;;;;;;;;;;16.20;86.70;;;;;;4995461;28;19921;-66
2021/06/21 04:25:00;;;;;;;;;;;16.20;86.70;;;;;;5012818;28;20267;-66
2021/06/21 04:27:26;;;;;;;;;;;16.10;86.50;;;;;;5012787;28;19972;-66
2021/06/21 04:29:51;;;;;;;;;;;16.10;86.90;;;;;;5013105;28;20007;-66
2021/06/21 04:32:17;;;;;;;;;;;16.10;86.90;;;;;;5011748;28;20321;-66
2021/06/21 04:34:42;;;;;;;;;;;16.10;87.00;;;;;;4995335;28;19922;-66
2021/06/21 04:37:08;;;;;;;;;;;16.10;87.00;;;;;;5012414;28;20290;-67
2021/06/21 04:39:34;;;;;;;;;;;16.10;87.20;;;;;;5012607;28;20473;-68
2021/06/21 04:41:59;;;;;;;;;;;16.10;87.30;;;;;;5012730;28;19953;-65
2021/06/21 04:44:25;;;;;;;;;;;16.10;87.30;;;;;;5012555;28;20305;-66
2021/06/21 04:46:50;;;;;;;;;;;16.10;87.30;;;;;;5012835;28;20008;-66
2021/06/21 04:49:16;;;;;;;;;;;16.00;87.20;;;;;;5012333;28;20316;-66
2021/06/21 04:51:42;;;;;;;;;;;16.00;87.40;;;;;;5011773;28;19957;-65
2021/06/21 04:54:09;;;;;;;;;;;15.90;87.80;;;;;;5012472;28;19922;-66
2021/06/21 04:56:35;;;;;;;;;;;15.90;88.00;;;;;;5012302;28;19952;-66
2021/06/21 04:59:02;;;;;;;;;;;15.90;88.10;;;;;;5012159;28;19968;-66
2021/06/21 05:01:27;;;;;;;;;;;15.90;88.40;;;;;;5012483;28;19921;-66
2021/06/21 05:03:53;;;;;;;;;;;15.90;88.70;;;;;;5012228;28;19917;-66
2021/06/21 05:06:18;;;;;;;;;;;16.00;88.70;;;;;;5012094;28;20007;-68
2021/06/21 05:08:44;;;;;;;;;;;16.00;88.40;;;;;;5011470;28;19975;-67
2021/06/21 05:11:09;;;;;;;;;;;16.00;88.50;;;;;;4994469;28;19921;-68
2021/06/21 05:13:35;;;;;;;;;;;16.00;88.60;;;;;;5012338;28;19924;-66
2021/06/21 05:16:00;;;;;;;;;;;16.00;88.70;;;;;;5012417;28;20060;-66
2021/06/21 05:18:26;;;;;;;;;;;16.00;88.50;;;;;;5011730;28;19917;-67
2021/06/21 05:20:51;;;;;;;;;;;16.00;88.70;;;;;;5012232;28;19917;-66
2021/06/21 05:23:17;;;;;;;;;;;16.10;89.20;;;;;;5010764;28;19917;-65
2021/06/21 05:25:42;;;;;;;;;;;16.10;88.80;;;;;;5012054;28;19980;-67
2021/06/21 05:28:08;;;;;;;;;;;16.10;88.70;;;;;;5009157;28;19968;-66
2021/06/21 05:30:34;;;;;;;;;;;16.10;88.40;;;;;;5010415;28;19921;-66
2021/06/21 05:32:59;;;;;;;;;;;16.10;89.10;;;;;;5011827;28;20370;-66
2021/06/21 05:35:25;;;;;;;;;;;16.10;89.10;;;;;;5011968;28;19967;-66
2021/06/21 05:37:51;;;;;;;;;;;16.10;89.20;;;;;;5011191;28;19932;-65
2021/06/21 05:40:18;;;;;;;;;;;16.10;89.00;;;;;;5011550;28;19917;-66
2021/06/21 05:42:43;;;;;;;;;;;16.10;89.20;;;;;;5010425;28;19918;-66
2021/06/21 05:45:09;;;;;;;;;;;16.20;89.20;;;;;;5011656;28;19913;-66
2021/06/21 05:47:35;;;;;;;;;;;16.20;89.40;;;;;;5011417;28;20034;-66
2021/06/21 05:50:00;;;;;;;;;;;16.20;89.70;;;;;;5011190;28;19937;-66
2021/06/21 05:52:26;;;;;;;;;;;16.30;89.60;;;;;;5011829;28;19960;-66
2021/06/21 05:54:58;;;;;;;;;;;16.30;89.70;;;;;;5011778;28;19917;-66
2021/06/21 05:57:25;;;;;;;;;;;16.40;89.70;;;;;;4993586;28;19924;-66
2021/06/21 05:59:51;;;;;;;;;;;16.40;89.40;;;;;;5011735;28;20385;-66
2021/06/21 06:02:16;;;;;;;;;;;16.40;89.50;;;;;;5011220;28;19960;-66
2021/06/21 06:04:42;;;;;;;;;;;16.50;89.40;;;;;;5011681;28;20366;-68
2021/06/21 06:07:08;;;;;;;;;;;16.50;89.50;;;;;;4993914;28;19918;-66
2021/06/21 06:09:34;;;;;;;;;;;16.50;89.20;;;;;;4993692;28;19930;-66
2021/06/21 06:12:00;;;;;;;;;;;16.50;89.30;;;;;;5011613;28;19918;-66
2021/06/21 06:14:25;;;;;;;;;;;16.50;89.40;;;;;;5011707;28;19918;-66
2021/06/21 06:16:51;;;;;;;;;;;16.50;89.40;;;;;;5010786;28;19926;-66
2021/06/21 06:19:16;;;;;;;;;;;16.50;89.20;;;;;;5011468;28;19921;-67
2021/06/21 06:21:42;;;;;;;;;;;16.40;89.20;;;;;;5011109;28;19944;-67
2021/06/21 06:24:08;;;;;;;;;;;16.40;89.20;;;;;;5011692;28;19922;-65
2021/06/21 06:26:36;;;;;;;;;;;16.40;90.00;;;;;;5011586;28;19925;-65
2021/06/21 06:29:01;;;;;;;;;;;16.40;89.70;;;;;;5010958;28;20390;-66
2021/06/21 06:31:28;;;;;;;;;;;16.50;89.90;;;;;;5011564;28;19949;-66
2021/06/21 06:33:53;;;;;;;;;;;16.50;89.80;;;;;;5009740;28;19922;-66
2021/06/21 06:36:19;;;;;;;;;;;16.50;89.70;;;;;;5010636;28;19917;-63
2021/06/21 06:38:45;;;;;;;;;;;16.50;89.50;;;;;;5009942;28;19971;-63
2021/06/21 06:41:10;;;;;;;;;;;16.50;89.40;;;;;;5009770;28;19940;-63
2021/06/21 06:43:36;;;;;;;;;;;16.50;89.70;;;;;;5010082;28;19917;-62
2021/06/21 06:46:01;;;;;;;;;;;16.60;90.10;;;;;;5009350;28;19917;-62
2021/06/21 06:48:27;;;;;;;;;;;16.60;90.00;;;;;;5002124;28;19930;-64
2021/06/21 06:50:53;;;;;;;;;;;16.60;89.90;;;;;;5004027;28;19918;-63
2021/06/21 06:53:26;;;;;;;;;;;16.70;90.00;;;;;;5009670;28;20412;-63
2021/06/21 06:58:36;;;;;;;;;;;16.80;89.70;;;;;;5014043;28;20267;-63
2021/06/21 07:01:01;;;;;;;;;;;16.80;89.60;;;;;;5014631;28;19937;-63
2021/06/21 07:03:28;;;;;;;;;;;16.90;89.80;;;;;;5013970;28;20358;-63
2021/06/21 07:05:53;;;;;;;;;;;16.90;89.80;;;;;;5014759;28;20018;-63
2021/06/21 07:08:19;;;;;;;;;;;17.00;89.60;;;;;;5014429;28;19996;-63
2021/06/21 07:10:44;;;;;;;;;;;17.00;89.40;;;;;;5014055;28;19926;-63
2021/06/21 07:13:10;;;;;;;;;;;17.00;89.30;;;;;;5014585;28;19925;-63
2021/06/21 07:15:36;;;;;;;;;;;16.90;89.00;;;;;;5014446;28;19922;-63
2021/06/21 07:18:01;;;;;;;;;;;16.90;89.00;;;;;;5013379;28;20263;-63
2021/06/21 07:20:27;;;;;;;;;;;16.90;89.30;;;;;;5012841;28;19940;-62
2021/06/21 07:22:52;;;;;;;;;;;16.80;89.20;;;;;;5012496;28;19918;-63
2021/06/21 07:25:18;;;;;;;;;;;16.70;88.80;;;;;;5013779;28;20294;-63
2021/06/21 07:27:43;;;;;;;;;;;16.80;89.40;;;;;;5007025;28;20505;-64
2021/06/21 07:30:09;;;;;;;;;;;16.70;89.40;;;;;;5013330;28;19985;-63
2021/06/21 07:32:35;;;;;;;;;;;16.70;89.50;;;;;;5013594;28;20373;-63
2021/06/21 07:35:01;;;;;;;;;;;16.70;89.60;;;;;;5013943;28;19928;-64
2021/06/21 07:37:27;;;;;;;;;;;16.80;90.00;;;;;;5013295;28;20374;-63
2021/06/21 07:39:53;;;;;;;;;;;16.90;89.90;;;;;;5012128;28;19917;-62
2021/06/21 07:42:19;;;;;;;;;;;16.90;89.50;;;;;;5012078;28;19944;-63
2021/06/21 07:44:44;;;;;;;;;;;16.80;89.20;;;;;;5013599;28;19963;-63
2021/06/21 07:47:10;;;;;;;;;;;16.80;89.50;;;;;;5012595;28;19917;-63
2021/06/21 07:49:36;;;;;;;;;;;16.80;89.90;;;;;;5010715;28;19956;-62
2021/06/21 07:52:01;;;;;;;;;;;16.90;89.60;;;;;;5010001;28;20397;-63
2021/06/21 07:54:27;;;;;;;;;;;16.80;89.70;;;;;;5010945;28;19918;-63
2021/06/21 07:56:52;;;;;;;;;;;16.90;89.70;;;;;;5012960;28;20309;-63
2021/06/21 07:59:18;;;;;;;;;;;16.90;89.50;;;;;;5013494;28;19925;-63
2021/06/21 08:01:44;;;;;;;;;;;16.90;90.00;;;;;;5013298;28;20333;-64
2021/06/21 08:04:09;;;;;;;;;;;16.80;89.90;;;;;;5013408;28;19988;-64
2021/06/21 08:06:37;;;;;;;;;;;16.90;89.90;;;;;;5013259;28;19927;-64
2021/06/21 08:09:03;;;;;;;;;;;16.80;89.60;;;;;;5008423;28;20283;-65
2021/06/21 08:11:28;;;;;;;;;;;16.80;89.80;;;;;;5013085;28;20429;-63
2021/06/21 08:13:54;;;;;;;;;;;16.90;89.90;;;;;;5013044;28;20009;-65
2021/06/21 08:16:20;;;;;;;;;;;16.90;90.00;;;;;;5012363;28;20460;-66
2021/06/21 08:18:46;;;;;;;;;;;16.90;90.00;;;;;;5007592;28;20417;-63
2021/06/21 08:21:11;;;;;;;;;;;16.90;89.90;;;;;;5012426;28;19953;-64
2021/06/21 08:23:37;;;;;;;;;;;17.00;90.00;;;;;;5012819;28;19921;-64
2021/06/21 08:26:03;;;;;;;;;;;17.00;90.00;;;;;;4995230;28;19924;-64
2021/06/21 08:28:29;;;;;;;;;;;17.00;90.10;;;;;;5012253;28;19913;-65
2021/06/21 08:30:54;;;;;;;;;;;17.10;90.00;;;;;;5012995;28;19933;-65
2021/06/21 08:33:20;;;;;;;;;;;17.10;90.10;;;;;;5012810;28;20355;-64
2021/06/21 08:35:46;;;;;;;;;;;17.20;90.10;;;;;;5011092;28;19928;-64
2021/06/21 08:38:11;;;;;;;;;;;17.20;90.00;;;;;;5005140;28;19924;-64
2021/06/21 08:40:38;;;;;;;;;;;17.30;90.00;;;;;;5010845;28;19925;-65
2021/06/21 08:43:04;;;;;;;;;;;17.30;90.10;;;;;;5012376;28;19917;-62
2021/06/21 08:45:30;;;;;;;;;;;17.40;90.10;;;;;;5012645;28;19917;-64
2021/06/21 08:47:56;;;;;;;;;;;17.50;90.00;;;;;;5011781;28;20378;-65
2021/06/21 08:50:22;;;;;;;;;;;17.60;89.90;;;;;;5012777;28;19932;-65
2021/06/21 08:52:48;;;;;;;;;;;17.70;89.80;;;;;;5012353;28;20012;-65
2021/06/21 08:55:14;;;;;;;;;;;17.70;89.60;;;;;;5012315;28;19929;-65
2021/06/21 08:57:42;;;;;;;;;;;17.80;89.60;;;;;;5010823;28;20286;-66
2021/06/21 09:00:09;;;;;;;;;;;17.80;89.40;;;;;;4994537;28;19918;-65
2021/06/21 09:02:35;;;;;;;;;;;17.90;89.50;;;;;;5012413;28;19918;-64
2021/06/21 09:05:01;;;;;;;;;;;17.90;89.30;;;;;;5012392;28;19918;-65
2021/06/21 09:07:27;;;;;;;;;;;18.00;89.10;;;;;;5011905;28;20428;-63
2021/06/21 09:09:54;;;;;;;;;;;18.00;88.80;;;;;;5012176;28;19929;-64
2021/06/21 09:12:24;;;;;;;;;;;18.00;88.80;;;;;;5011737;28;19979;-65
2021/06/21 09:14:50;;;;;;;;;;;18.00;88.60;;;;;;5012225;28;19917;-64
2021/06/21 09:17:20;;;;;;;;;;;17.90;88.10;;;;;;5011554;28;19929;-64
2021/06/21 09:19:51;;;;;;;;;;;17.90;88.40;;;;;;5011818;28;19921;-65
2021/06/21 09:22:34;;;;;;;;;;;17.80;88.20;;;;;;5012153;28;19927;-64
2021/06/21 09:25:03;;;;;;;;;;;17.80;88.50;;;;;;4994081;28;19964;-63
2021/06/21 09:27:29;;;;;;;;;;;17.80;88.20;;;;;;5011898;28;19924;-64
2021/06/21 09:29:55;;;;;;;;;;;17.80;88.70;;;;;;5011484;28;20069;-65
2021/06/21 09:32:38;;;;;;;;;;;17.80;88.50;;;;;;5011885;28;19925;-64
2021/06/21 09:35:04;;;;;;;;;;;17.80;88.30;;;;;;5011334;28;20365;-64
2021/06/21 09:37:41;;;;;;;;;;;17.80;88.50;;;;;;5011656;28;20386;-62
2021/06/21 09:40:07;;;;;;;;;;;17.80;88.50;;;;;;5011742;28;19956;-64
2021/06/21 09:42:35;;;;;;;;;;;17.90;88.10;;;;;;5011806;28;19960;-63
2021/06/21 09:45:01;;;;;;;;;;;17.90;88.20;;;;;;4994324;28;20398;-63
2021/06/21 09:47:28;;;;;;;;;;;17.90;88.20;;;;;;5011441;28;19952;-63
2021/06/21 09:50:01;;;;;;;;;;;17.90;88.30;;;;;;5011636;28;19922;-62
2021/06/21 09:52:35;;;;;;;;;;;18.00;88.10;;;;;;5011387;28;19956;-64
2021/06/21 09:55:09;;;;;;;;;;;18.00;88.00;;;;;;5011793;28;19940;-64
2021/06/21 09:57:35;;;;;;;;;;;18.00;87.70;;;;;;5010871;28;19924;-62
2021/06/21 10:00:04;;;;;;;;;;;18.00;87.90;;;;;;5011557;28;19963;-63
2021/06/21 10:02:29;;;;;;;;;;;18.10;88.30;;;;;;5011207;28;19918;-64
2021/06/21 10:04:55;;;;;;;;;;;18.10;87.90;;;;;;5011554;28;20401;-63
2021/06/21 10:07:32;;;;;;;;;;;18.10;88.00;;;;;;5011239;28;19917;-63
2021/06/21 10:09:59;;;;;;;;;;;18.10;87.90;;;;;;5011225;28;19925;-63
2021/06/21 10:12:25;;;;;;;;;;;18.20;88.30;;;;;;5011484;28;19936;-63
2021/06/21 10:14:51;;;;;;;;;;;18.30;88.00;;;;;;5010051;28;20381;-63
2021/06/21 10:17:16;;;;;;;;;;;18.40;87.70;;;;;;5011101;28;20375;-62
2021/06/21 10:19:42;;;;;;;;;;;18.50;87.70;;;;;;5011568;28;20294;-63
2021/06/21 10:22:08;;;;;;;;;;;18.60;87.90;;;;;;5010950;28;20067;-63
2021/06/21 10:24:34;;;;;;;;;;;18.70;87.50;;;;;;5011496;28;19913;-63
2021/06/21 10:27:00;;;;;;;;;;;18.70;86.50;;;;;;5011080;28;20394;-63
2021/06/21 10:29:25;;;;;;;;;;;18.70;86.80;;;;;;5010391;28;19922;-64
2021/06/21 10:31:51;;;;;;;;;;;18.70;86.80;;;;;;5013800;28;19921;-63
2021/06/21 10:34:17;;;;;;;;;;;18.70;86.50;;;;;;5014637;28;19922;-64
2021/06/21 10:36:46;;;;;;;;;;;18.70;86.40;;;;;;5014850;28;20016;-65
2021/06/21 10:39:14;;;;;;;;;;;18.70;86.20;;;;;;5015233;28;19917;-63
2021/06/21 10:41:40;;;;;;;;;;;18.70;86.10;;;;;;4996605;28;19957;-63
2021/06/21 10:44:05;;;;;;;;;;;18.70;86.10;;;;;;5014005;28;20355;-64
2021/06/21 10:46:32;;;;;;;;;;;18.70;85.90;;;;;;5014444;28;20440;-63
2021/06/21 10:49:01;;;;;;;;;;;18.70;85.90;;;;;;5014623;28;19921;-64
2021/06/21 10:51:29;;;;;;;;;;;18.60;85.60;;;;;;5014517;28;20349;-64
2021/06/21 10:53:55;;;;;;;;;;;18.60;85.30;;;;;;5014468;28;20008;-64
2021/06/21 10:56:39;;;;;;;;;;;18.50;85.50;;;;;;5014650;28;19959;-63
2021/06/21 10:59:11;;;;;;;;;;;18.50;85.60;;;;;;4996789;28;19917;-64
2021/06/21 11:01:45;;;;;;;;;;;18.40;85.70;;;;;;5013528;28;20444;-64
2021/06/21 11:04:10;;;;;;;;;;;18.40;85.50;;;;;;5014184;28;19945;-63
2021/06/21 11:06:38;;;;;;;;;;;18.40;85.70;;;;;;5014532;28;19956;-64
2021/06/21 11:09:04;;;;;;;;;;;18.40;85.80;;;;;;5013904;28;20465;-63
2021/06/21 11:11:33;;;;;;;;;;;18.40;85.20;;;;;;5014467;28;20004;-64
2021/06/21 11:14:05;;;;;;;;;;;18.30;85.20;;;;;;5014364;28;19924;-64
2021/06/21 11:16:30;;;;;;;;;;;18.20;85.30;;;;;;5014094;28;20374;-69
2021/06/21 11:19:23;;;;;;;;;;;18.20;86.20;;;;;;5014146;28;19917;-69
2021/06/21 11:21:53;;;;;;;;;;;18.20;86.30;;;;;;5013976;28;19918;-69
2021/06/21 11:24:31;;;;;;;;;;;18.40;86.80;;;;;;5014287;28;19917;-69
2021/06/21 11:27:00;;;;;;;;;;;18.60;86.60;;;;;;5013361;28;19918;-69
2021/06/21 11:29:29;;;;;;;;;;;18.80;86.50;;;;;;5012954;28;20405;-70
2021/06/21 11:31:58;;;;;;;;;;;19.00;86.30;;;;;;5009330;28;20004;-68
2021/06/21 11:34:44;;;;;;;;;;;19.30;87.00;;;;;;5010315;28;19975;-69
2021/06/21 11:37:28;;;;;;;;;;;19.80;88.10;;;;;;5011647;28;19933;-69
2021/06/21 11:40:25;;;;;;;;;;;20.30;87.10;;;;;;5011617;28;19948;-69
2021/06/21 11:42:57;;;;;;;;;;;20.50;85.50;;;;;;5005684;28;19923;-69
2021/06/21 11:45:42;;;;;;;;;;;20.60;84.10;;;;;;5013301;28;19967;-68
2021/06/21 11:48:11;;;;;;;;;;;20.60;83.90;;;;;;5013079;28;19917;-68
2021/06/21 11:50:36;;;;;;;;;;;20.60;83.30;;;;;;5013647;28;19925;-69
2021/06/21 11:53:02;;;;;;;;;;;20.50;82.30;;;;;;5013586;28;19917;-68
2021/06/21 11:55:28;;;;;;;;;;;20.20;81.80;;;;;;5013256;28;20329;-68
2021/06/21 11:57:56;;;;;;;;;;;20.10;81.90;;;;;;5013480;28;19922;-68
2021/06/21 12:00:36;;;;;;;;;;;19.90;81.90;;;;;;5013016;28;19967;-69
2021/06/21 12:03:03;;;;;;;;;;;19.70;81.70;;;;;;4996193;28;19918;-64
2021/06/21 12:05:29;;;;;;;;;;;19.60;82.20;;;;;;5013747;28;19917;-64
2021/06/21 12:07:55;;;;;;;;;;;19.50;82.10;;;;;;5011000;28;20036;-64
2021/06/21 12:10:21;;;;;;;;;;;19.50;82.50;;;;;;5011444;28;19992;-69
2021/06/21 12:12:49;;;;;;;;;;;19.40;82.40;;;;;;5012810;28;20405;-68
2021/06/21 12:15:25;;;;;;;;;;;19.40;82.70;;;;;;4995497;28;19917;-69
2021/06/21 12:17:51;;;;;;;;;;;19.40;82.40;;;;;;5012485;28;20008;-68
2021/06/21 12:20:18;;;;;;;;;;;19.30;81.80;;;;;;5012871;28;20000;-69
2021/06/21 12:23:00;;;;;;;;;;;19.10;81.80;;;;;;4995340;28;20341;-69
2021/06/21 12:25:26;;;;;;;;;;;19.00;82.20;;;;;;5012482;28;19925;-69
2021/06/21 12:27:53;;;;;;;;;;;18.90;82.50;;;;;;4994779;28;19920;-69
2021/06/21 12:30:32;;;;;;;;;;;18.80;82.70;;;;;;5011889;28;19922;-70
2021/06/21 12:32:58;;;;;;;;;;;18.70;82.90;;;;;;4994878;28;19917;-65
2021/06/21 12:35:23;;;;;;;;;;;18.60;83.00;;;;;;5012148;28;19940;-65
2021/06/21 12:37:49;;;;;;;;;;;18.60;83.10;;;;;;5011680;28;19940;-65
2021/06/21 12:40:20;;;;;;;;;;;18.50;83.40;;;;;;5012322;28;19921;-65
2021/06/21 12:42:47;;;;;;;;;;;18.50;83.90;;;;;;5006762;28;19928;-65
2021/06/21 12:45:14;;;;;;;;;;;18.60;84.00;;;;;;5010644;28;20301;-64
2021/06/21 12:47:44;;;;;;;;;;;18.60;84.30;;;;;;5011061;28;20020;-65
2021/06/21 12:50:12;;;;;;;;;;;18.70;84.50;;;;;;4986646;28;20302;-64
2021/06/21 12:52:43;;;;;;;;;;;18.90;85.00;;;;;;4975729;28;19918;-65
2021/06/21 12:55:09;;;;;;;;;;;19.10;85.00;;;;;;5010119;28;20340;-65
2021/06/21 12:57:48;;;;;;;;;;;19.20;84.40;;;;;;5011438;28;19940;-65
2021/06/21 13:00:15;;;;;;;;;;;19.30;84.20;;;;;;5008489;28;19959;-65
2021/06/21 13:02:40;;;;;;;;;;;19.30;83.30;;;;;;5010064;28;20425;-64
2021/06/21 13:05:09;;;;;;;;;;;19.20;82.90;;;;;;5008979;28;19917;-64
2021/06/21 13:07:36;;;;;;;;;;;19.10;82.90;;;;;;4990243;28;20388;-64
2021/06/21 13:10:02;;;;;;;;;;;19.00;83.50;;;;;;5003729;28;19922;-64
2021/06/21 13:12:29;;;;;;;;;;;19.00;83.30;;;;;;5006254;28;20369;-64
2021/06/21 13:15:15;;;;;;;;;;;19.00;83.10;;;;;;5010412;28;19921;-65
2021/06/21 13:17:44;;;;;;;;;;;18.90;83.10;;;;;;5010246;28;20000;-64
2021/06/21 13:20:11;;;;;;;;;;;18.70;83.30;;;;;;4974919;28;19914;-64
2021/06/21 13:22:40;;;;;;;;;;;18.70;83.40;;;;;;5006584;28;21421;-64
2021/06/21 13:25:24;;;;;;;;;;;18.60;83.60;;;;;;5011662;28;19944;-64
2021/06/21 13:27:50;;;;;;;;;;;18.60;83.90;;;;;;5001803;28;19921;-64
2021/06/21 13:30:23;;;;;;;;;;;18.70;84.50;;;;;;5010434;28;19925;-64
2021/06/21 13:32:50;;;;;;;;;;;18.80;84.80;;;;;;4986744;28;19925;-64
2021/06/21 13:35:17;;;;;;;;;;;18.90;84.80;;;;;;5011902;28;20016;-65
2021/06/21 13:37:44;;;;;;;;;;;19.10;84.90;;;;;;5007527;28;20024;-64
2021/06/21 13:40:18;;;;;;;;;;;19.20;84.50;;;;;;5008221;28;19940;-65
2021/06/21 13:42:55;;;;;;;;;;;19.30;84.40;;;;;;4987563;28;20154;-64
2021/06/21 13:45:20;;;;;;;;;;;19.50;83.90;;;;;;5011438;28;19917;-64
2021/06/21 13:47:47;;;;;;;;;;;19.60;84.10;;;;;;5011397;28;20160;-64
2021/06/21 13:50:15;;;;;;;;;;;19.70;84.20;;;;;;5009272;28;20310;-65
2021/06/21 13:52:48;;;;;;;;;;;19.80;83.70;;;;;;5010880;28;19922;-65
2021/06/21 13:55:18;;;;;;;;;;;19.90;83.20;;;;;;4977516;28;20332;-65
2021/06/21 13:57:48;;;;;;;;;;;19.80;82.40;;;;;;5009280;28;19918;-65
2021/06/21 14:00:28;;;;;;;;;;;19.70;82.00;;;;;;5011190;28;19947;-65
2021/06/21 14:02:54;;;;;;;;;;;19.50;82.20;;;;;;5010862;28;19918;-65
2021/06/21 14:05:21;;;;;;;;;;;19.40;82.30;;;;;;5014086;28;19956;-65
2021/06/21 14:07:46;;;;;;;;;;;19.30;82.50;;;;;;5014490;28;19918;-64
2021/06/21 14:10:12;;;;;;;;;;;19.30;82.90;;;;;;5013927;28;19925;-65
2021/06/21 14:12:38;;;;;;;;;;;19.30;83.10;;;;;;5013672;28;20556;-64
2021/06/21 14:15:05;;;;;;;;;;;19.20;83.00;;;;;;5014782;28;19918;-65
2021/06/21 14:17:31;;;;;;;;;;;19.30;83.20;;;;;;5014958;28;19964;-64
2021/06/21 14:19:58;;;;;;;;;;;19.20;82.80;;;;;;5013784;28;19926;-65
2021/06/21 14:22:24;;;;;;;;;;;19.20;82.90;;;;;;5008847;28;19917;-65